createdAt,value
2022-09-04T00:00:18.560Z,99.90
2022-09-04T00:03:03.199Z,99.90
2022-09-04T00:05:35.696Z,99.90
2022-09-04T00:08:11.493Z,99.90
2022-09-04T00:10:42.713Z,99.90
2022-09-04T00:13:13.618Z,99.90
2022-09-04T00:15:45.617Z,99.90
2022-09-04T00:18:16.480Z,99.90
2022-09-04T00:20:49.917Z,99.90
2022-09-04T00:23:19.841Z,99.90
2022-09-04T00:25:52.510Z,99.90
2022-09-04T00:28:32.917Z,99.90
2022-09-04T00:31:08.630Z,99.90
2022-09-04T00:33:41.370Z,99.90
2022-09-04T00:36:10.050Z,99.90
2022-09-04T00:38:41.731Z,99.90
2022-09-04T00:41:15.332Z,99.90
2022-09-04T00:44:01.220Z,99.90
2022-09-04T00:46:49.111Z,99.90
2022-09-04T00:49:36.880Z,99.90
2022-09-04T00:52:11.368Z,99.90
2022-09-04T00:54:45.938Z,99.90
2022-09-04T00:57:34.206Z,99.90
2022-09-04T01:00:08.570Z,99.90
2022-09-04T01:02:48.850Z,99.90
2022-09-04T01:05:29.662Z,99.90
2022-09-04T01:08:02.339Z,99.90
2022-09-04T01:10:45.411Z,99.90
2022-09-04T01:13:17.281Z,99.90
2022-09-04T01:15:46.840Z,99.90
2022-09-04T01:18:18.310Z,99.90
2022-09-04T01:21:06.771Z,99.90
2022-09-04T01:23:44.871Z,99.90
2022-09-04T01:26:20.441Z,99.90
2022-09-04T01:28:54.360Z,99.90
2022-09-04T01:31:26.755Z,99.90
2022-09-04T01:34:01.982Z,99.90
2022-09-04T01:36:34.179Z,99.90
2022-09-04T01:39:03.647Z,99.90
2022-09-04T01:41:38.497Z,99.90
2022-09-04T01:44:08.487Z,99.90
2022-09-04T01:46:54.266Z,99.90
2022-09-04T01:49:27.269Z,99.90
2022-09-04T01:52:00.551Z,99.90
2022-09-04T01:54:35.382Z,99.90
2022-09-04T01:57:10.541Z,99.90
2022-09-04T01:59:42.958Z,99.90
2022-09-04T02:02:14.806Z,99.90
2022-09-04T02:04:48.322Z,99.90
2022-09-04T02:07:22.581Z,99.90
2022-09-04T02:09:57.233Z,99.90
2022-09-04T02:12:31.729Z,99.90
2022-09-04T02:15:03.865Z,99.90
2022-09-04T02:17:36.121Z,99.90
2022-09-04T02:20:14.340Z,99.90
2022-09-04T02:22:46.577Z,99.90
2022-09-04T02:25:20.148Z,99.90
2022-09-04T02:27:52.480Z,99.90
2022-09-04T02:30:21.531Z,99.90
2022-09-04T02:32:54.260Z,99.90
2022-09-04T02:35:25.350Z,99.90
2022-09-04T02:38:01.990Z,99.90
2022-09-04T02:40:33.838Z,99.90
2022-09-04T02:43:14.271Z,99.90
2022-09-04T02:45:46.313Z,99.90
2022-09-04T02:48:18.849Z,99.90
2022-09-04T02:50:54.127Z,99.90
2022-09-04T02:53:30.258Z,99.90
2022-09-04T02:56:09.118Z,99.90
2022-09-04T02:58:47.871Z,99.90
2022-09-04T03:01:18.603Z,99.90
2022-09-04T03:03:50.568Z,99.90
2022-09-04T03:06:23.479Z,99.90
2022-09-04T03:08:53.810Z,99.90
2022-09-04T03:11:27.410Z,99.90
2022-09-04T03:14:02.990Z,99.90
2022-09-04T03:16:34.135Z,99.90
2022-09-04T03:19:09.561Z,99.90
2022-09-04T03:21:41.828Z,99.90
2022-09-04T03:24:13.657Z,99.90
2022-09-04T03:26:43.883Z,99.90
2022-09-04T03:29:22.147Z,99.90
2022-09-04T03:31:58.641Z,99.90
2022-09-04T03:34:34.572Z,99.90
2022-09-04T03:37:07.791Z,99.90
2022-09-04T03:39:39.943Z,99.90
2022-09-04T03:42:15.379Z,99.90
2022-09-04T03:44:50.448Z,99.90
2022-09-04T03:47:25.183Z,99.90
2022-09-04T03:49:58.251Z,99.90
2022-09-04T03:52:33.235Z,99.90
2022-09-04T03:55:16.321Z,99.90
2022-09-04T03:58:06.724Z,99.90
2022-09-04T04:00:42.784Z,99.90
2022-09-04T04:03:25.011Z,99.90
2022-09-04T04:06:01.112Z,99.90
2022-09-04T04:08:39.401Z,99.90
2022-09-04T04:11:17.091Z,99.90
2022-09-04T04:13:57.963Z,99.90
2022-09-04T04:16:40.794Z,99.90
2022-09-04T04:19:23.432Z,99.90
2022-09-04T04:21:58.740Z,99.90
2022-09-04T04:24:39.298Z,99.90
2022-09-04T04:27:14.525Z,99.90
2022-09-04T04:29:50.978Z,99.90
2022-09-04T04:32:33.754Z,99.90
2022-09-04T04:35:17.491Z,99.90
2022-09-04T04:37:51.938Z,99.90
2022-09-04T04:40:25.503Z,99.90
2022-09-04T04:42:59.551Z,99.90
2022-09-04T04:45:48.039Z,99.90
2022-09-04T04:48:46.172Z,99.90
2022-09-04T04:51:32.892Z,99.90
2022-09-04T04:54:19.771Z,99.90
2022-09-04T04:56:52.588Z,99.90
2022-09-04T04:59:24.761Z,99.90
2022-09-04T05:01:58.560Z,99.90
2022-09-04T05:04:31.354Z,99.90
2022-09-04T05:07:01.402Z,99.90
2022-09-04T05:09:34.083Z,99.90
2022-09-04T05:12:07.642Z,99.90
2022-09-04T05:14:42.848Z,99.90
2022-09-04T05:17:17.519Z,99.90
2022-09-04T05:19:50.210Z,99.90
2022-09-04T05:22:24.762Z,99.90
2022-09-04T05:24:59.089Z,99.90
2022-09-04T05:27:50.274Z,99.90
2022-09-04T05:30:21.741Z,99.90
2022-09-04T05:32:54.816Z,99.90
2022-09-04T05:35:26.469Z,99.90
2022-09-04T05:38:07.372Z,99.90
2022-09-04T05:40:45.583Z,99.90
2022-09-04T05:43:19.588Z,99.90
2022-09-04T05:45:57.527Z,99.90
2022-09-04T05:48:27.512Z,99.90
2022-09-04T05:51:08.692Z,99.90
2022-09-04T05:53:43.083Z,99.90
2022-09-04T05:56:18.112Z,99.90
2022-09-04T05:59:12.953Z,99.90
2022-09-04T06:01:54.537Z,99.90
2022-09-04T06:04:37.723Z,99.90
2022-09-04T06:07:09.993Z,99.90
2022-09-04T06:09:48.013Z,99.90
2022-09-04T06:12:23.788Z,99.90
2022-09-04T06:14:59.443Z,99.90
2022-09-04T06:17:34.073Z,99.90
2022-09-04T06:20:09.752Z,99.90
2022-09-04T06:22:59.208Z,99.90
2022-09-04T06:25:40.474Z,99.90
2022-09-04T06:28:12.918Z,99.90
2022-09-04T06:30:46.689Z,99.90
2022-09-04T06:33:29.833Z,99.90
2022-09-04T06:36:12.217Z,99.90
2022-09-04T06:38:49.295Z,99.90
2022-09-04T06:41:27.032Z,99.90
2022-09-04T06:44:00.500Z,99.90
2022-09-04T06:46:33.345Z,99.90
2022-09-04T06:49:06.058Z,99.90
2022-09-04T06:51:43.059Z,99.90
2022-09-04T06:54:16.809Z,99.90
2022-09-04T06:57:01.160Z,99.90
2022-09-04T06:59:39.001Z,99.90
2022-09-04T07:02:17.601Z,99.90
2022-09-04T07:04:52.881Z,99.90
2022-09-04T07:07:30.739Z,99.90
2022-09-04T07:10:01.691Z,99.90
2022-09-04T07:12:45.132Z,99.90
2022-09-04T07:15:25.199Z,99.90
2022-09-04T07:18:01.270Z,99.90
2022-09-04T07:20:33.120Z,99.90
2022-09-04T07:23:13.152Z,99.90
2022-09-04T07:25:45.579Z,99.90
2022-09-04T07:28:18.452Z,99.90
2022-09-04T07:30:50.643Z,99.90
2022-09-04T07:33:22.479Z,99.90
2022-09-04T07:35:54.711Z,99.90
2022-09-04T07:38:29.499Z,99.90
2022-09-04T07:41:03.558Z,99.90
2022-09-04T07:43:42.068Z,99.90
2022-09-04T07:46:14.849Z,99.90
2022-09-04T07:48:45.810Z,99.90
2022-09-04T07:51:16.089Z,99.90
2022-09-04T07:54:02.780Z,99.90
2022-09-04T07:56:36.651Z,99.90
2022-09-04T07:59:14.536Z,99.90
2022-09-04T08:01:54.555Z,99.90
2022-09-04T08:04:27.157Z,99.90
2022-09-04T08:06:58.222Z,99.90
2022-09-04T08:09:44.336Z,99.90
2022-09-04T08:12:26.014Z,99.90
2022-09-04T08:14:56.826Z,99.90
2022-09-04T08:17:45.387Z,99.90
2022-09-04T08:20:19.141Z,99.90
2022-09-04T08:22:51.279Z,99.90
2022-09-04T08:25:27.191Z,99.90
2022-09-04T08:28:17.784Z,99.90
2022-09-04T08:30:51.476Z,99.90
2022-09-04T08:33:34.661Z,99.90
2022-09-04T08:36:04.576Z,99.90
2022-09-04T08:38:48.161Z,99.90
2022-09-04T08:41:37.088Z,99.90
2022-09-04T08:44:29.507Z,99.90
2022-09-04T08:47:21.855Z,99.90
2022-09-04T08:50:06.556Z,99.90
2022-09-04T08:52:42.072Z,99.90
2022-09-04T08:55:28.788Z,99.90
2022-09-04T08:58:25.079Z,99.90
2022-09-04T09:01:07.768Z,99.90
2022-09-04T09:03:50.955Z,99.90
2022-09-04T09:06:40.347Z,99.90
2022-09-04T09:09:27.137Z,99.90
2022-09-04T09:12:10.660Z,99.90
2022-09-04T09:14:57.800Z,99.90
2022-09-04T09:17:35.589Z,99.90
2022-09-04T09:20:10.699Z,99.90
2022-09-04T09:22:39.739Z,99.90
2022-09-04T09:25:25.735Z,99.90
2022-09-04T09:28:12.726Z,99.90
2022-09-04T09:31:05.700Z,99.90
2022-09-04T09:33:47.039Z,99.90
2022-09-04T09:36:36.949Z,99.90
2022-09-04T09:39:34.454Z,99.90
2022-09-04T09:42:29.591Z,99.90
2022-09-04T09:45:11.631Z,99.90
2022-09-04T09:47:54.790Z,99.90
2022-09-04T09:50:42.358Z,99.90
2022-09-04T09:53:35.268Z,99.90
2022-09-04T09:56:19.929Z,99.90
2022-09-04T09:59:05.820Z,99.90
2022-09-04T10:01:40.903Z,99.90
2022-09-04T10:04:21.798Z,99.90
2022-09-04T10:07:10.754Z,99.90
2022-09-04T10:10:02.888Z,99.90
2022-09-04T10:12:50.336Z,99.90
2022-09-04T10:15:36.002Z,99.90
2022-09-04T10:18:19.430Z,99.90
2022-09-04T10:21:13.830Z,99.90
2022-09-04T10:24:08.496Z,99.90
2022-09-04T10:27:07.130Z,99.90
2022-09-04T10:29:52.129Z,99.90
2022-09-04T10:32:28.183Z,99.90
2022-09-04T10:35:14.041Z,99.90
2022-09-04T10:38:06.285Z,99.90
2022-09-04T10:40:43.819Z,99.90
2022-09-04T10:43:22.939Z,99.90
2022-09-04T10:45:59.048Z,99.90
2022-09-04T10:48:36.918Z,99.90
2022-09-04T10:51:21.538Z,99.90
2022-09-04T10:54:20.190Z,99.90
2022-09-04T10:57:01.347Z,99.90
2022-09-04T10:59:44.259Z,99.90
2022-09-04T11:02:34.898Z,99.90
2022-09-04T11:05:32.498Z,99.90
2022-09-04T11:08:22.415Z,99.90
2022-09-04T11:11:01.553Z,99.90
2022-09-04T11:13:56.500Z,99.90
2022-09-04T11:16:49.201Z,99.90
2022-09-04T11:19:44.866Z,99.90
2022-09-04T11:22:44.778Z,99.90
2022-09-04T11:25:43.069Z,99.90
2022-09-04T11:28:44.478Z,99.90
2022-09-04T11:31:21.724Z,99.90
2022-09-04T11:34:05.931Z,99.90
2022-09-04T11:36:53.046Z,99.90
2022-09-04T11:39:40.454Z,99.30
2022-09-04T11:42:41.533Z,99.80
2022-09-04T11:45:29.316Z,99.90
2022-09-04T11:48:12.807Z,98.90
2022-09-04T11:50:56.596Z,99.10
2022-09-04T11:53:36.639Z,99.30
2022-09-04T11:56:23.935Z,99.10
2022-09-04T11:59:10.681Z,98.90
2022-09-04T12:01:52.739Z,99.60
2022-09-04T12:04:28.500Z,98.80
2022-09-04T12:07:02.582Z,99.10
2022-09-04T12:09:40.108Z,99.60
2022-09-04T12:12:21.309Z,99.70
2022-09-04T12:15:07.654Z,98.70
2022-09-04T12:17:49.364Z,99.40
2022-09-04T12:20:32.537Z,98.80
2022-09-04T12:23:27.950Z,99.70
2022-09-04T12:26:13.878Z,98.00
2022-09-04T12:28:52.225Z,97.20
2022-09-04T12:31:42.734Z,96.30
2022-09-04T12:34:28.999Z,96.20
2022-09-04T12:37:06.398Z,95.50
2022-09-04T12:40:00.697Z,95.70
2022-09-04T12:42:33.639Z,95.30
2022-09-04T12:45:10.470Z,95.10
2022-09-04T12:47:46.280Z,93.70
2022-09-04T12:50:19.435Z,94.40
2022-09-04T12:52:54.966Z,94.80
2022-09-04T12:55:27.262Z,94.10
2022-09-04T12:58:11.829Z,93.40
2022-09-04T13:00:48.760Z,93.20
2022-09-04T13:03:25.652Z,92.90
2022-09-04T13:06:11.080Z,92.40
2022-09-04T13:08:46.809Z,91.90
2022-09-04T13:11:24.404Z,92.00
2022-09-04T13:14:00.984Z,91.80
2022-09-04T13:16:34.286Z,92.20
2022-09-04T13:19:09.977Z,91.60
2022-09-04T13:21:46.684Z,91.40
2022-09-04T13:24:20.855Z,91.50
2022-09-04T13:26:59.369Z,91.50
2022-09-04T13:29:35.522Z,91.30
2022-09-04T13:32:22.208Z,91.30
2022-09-04T13:35:00.923Z,91.00
2022-09-04T13:37:35.221Z,91.20
2022-09-04T13:40:13.910Z,90.60
2022-09-04T13:43:03.731Z,90.40
2022-09-04T13:45:35.292Z,90.20
2022-09-04T13:48:06.804Z,90.80
2022-09-04T13:50:39.103Z,90.30
2022-09-04T13:53:15.921Z,90.30
2022-09-04T13:55:49.999Z,89.50
2022-09-04T13:58:20.450Z,90.20
2022-09-04T14:00:53.151Z,89.50
2022-09-04T14:03:32.533Z,89.20
2022-09-04T14:06:01.438Z,89.50
2022-09-04T14:08:31.506Z,89.40
2022-09-04T14:11:21.056Z,89.10
2022-09-04T14:14:03.554Z,90.00
2022-09-04T14:16:36.886Z,89.40
2022-09-04T14:19:17.646Z,89.30
2022-09-04T14:21:55.640Z,88.70
2022-09-04T14:24:33.234Z,88.50
2022-09-04T14:27:07.504Z,87.80
2022-09-04T14:29:46.024Z,87.50
2022-09-04T14:32:22.911Z,87.90
2022-09-04T14:35:02.424Z,88.60
2022-09-04T14:37:40.542Z,87.00
2022-09-04T14:40:10.992Z,87.60
2022-09-04T14:42:45.922Z,87.80
2022-09-04T14:45:33.734Z,87.40
2022-09-04T14:48:07.265Z,87.00
2022-09-04T14:50:44.863Z,88.50
2022-09-04T14:53:21.743Z,87.60
2022-09-04T14:56:07.183Z,87.00
2022-09-04T14:58:37.500Z,87.30
2022-09-04T15:01:08.439Z,86.80
2022-09-04T15:03:45.520Z,87.30
2022-09-04T15:06:17.814Z,87.10
2022-09-04T15:08:50.924Z,86.50
2022-09-04T15:11:31.457Z,85.80
2022-09-04T15:14:03.280Z,85.50
2022-09-04T15:16:44.505Z,85.90
2022-09-04T15:19:22.435Z,85.60
2022-09-04T15:21:52.676Z,86.70
2022-09-04T15:24:26.786Z,85.00
2022-09-04T15:27:00.229Z,85.60
2022-09-04T15:29:33.778Z,85.70
2022-09-04T15:32:03.704Z,86.40
2022-09-04T15:34:36.782Z,86.40
2022-09-04T15:37:14.995Z,85.90
2022-09-04T15:39:49.295Z,85.90
2022-09-04T15:42:33.251Z,86.40
2022-09-04T15:45:02.922Z,85.80
2022-09-04T15:47:55.165Z,85.60
2022-09-04T15:50:27.640Z,85.50
2022-09-04T15:52:58.914Z,86.30
2022-09-04T15:55:28.970Z,86.70
2022-09-04T15:58:04.796Z,87.30
2022-09-04T16:00:36.163Z,87.30
2022-09-04T16:03:12.220Z,87.40
2022-09-04T16:05:45.425Z,87.50
2022-09-04T16:08:21.182Z,87.40
2022-09-04T16:10:57.550Z,87.90
2022-09-04T16:13:43.823Z,88.00
2022-09-04T16:16:13.567Z,89.10
2022-09-04T16:18:49.133Z,88.40
2022-09-04T16:21:23.042Z,88.90
2022-09-04T16:23:51.918Z,88.20
2022-09-04T16:26:25.129Z,88.40
2022-09-04T16:28:56.422Z,88.70
2022-09-04T16:31:32.161Z,88.50
2022-09-04T16:34:03.772Z,88.90
2022-09-04T16:36:42.050Z,88.90
2022-09-04T16:39:17.294Z,88.60
2022-09-04T16:41:52.522Z,88.80
2022-09-04T16:44:25.840Z,89.20
2022-09-04T16:47:06.453Z,89.40
2022-09-04T16:49:46.960Z,89.70
2022-09-04T16:52:33.555Z,90.00
2022-09-04T16:55:06.693Z,90.10
2022-09-04T16:57:38.884Z,90.00
2022-09-04T17:00:19.215Z,90.10
2022-09-04T17:02:51.952Z,90.40
2022-09-04T17:05:28.978Z,90.30
2022-09-04T17:08:03.188Z,90.50
2022-09-04T17:10:41.922Z,90.40
2022-09-04T17:13:15.689Z,90.40
2022-09-04T17:15:53.636Z,90.70
2022-09-04T17:18:23.717Z,90.80
2022-09-04T17:25:35.426Z,90.80
2022-09-04T17:29:02.241Z,90.90
2022-09-04T17:29:08.631Z,91.20
2022-09-04T17:29:38.312Z,91.40
2022-09-04T17:33:19.875Z,91.90
2022-09-04T17:40:37.881Z,92.10
2022-09-04T17:40:48.267Z,92.10
2022-09-04T17:41:38.338Z,92.20
2022-09-04T17:44:05.461Z,92.50
2022-09-04T17:46:36.954Z,92.80
2022-09-04T17:49:17.750Z,93.00
2022-09-04T17:51:50.668Z,93.30
2022-09-04T17:54:27.169Z,93.60
2022-09-04T17:56:59.661Z,93.90
2022-09-04T17:59:33.030Z,94.10
2022-09-04T18:02:03.992Z,94.40
2022-09-04T18:04:35.422Z,94.70
2022-09-04T18:07:28.881Z,95.00
2022-09-04T18:10:10.031Z,95.30
2022-09-04T18:12:43.287Z,95.40
2022-09-04T18:15:33.159Z,95.70
2022-09-04T18:18:08.545Z,95.80
2022-09-04T18:20:39.667Z,96.10
2022-09-04T18:23:22.094Z,96.20
2022-09-04T18:25:54.405Z,96.50
2022-09-04T18:28:28.637Z,96.60
2022-09-04T18:37:12.113Z,96.70
2022-09-04T18:37:19.204Z,97.30
2022-09-04T18:37:25.853Z,97.00
2022-09-04T18:39:45.817Z,97.70
2022-09-04T18:50:20.270Z,98.20
2022-09-04T18:50:34.630Z,99.20
2022-09-04T18:50:39.519Z,98.60
2022-09-04T18:51:12.480Z,99.50
2022-09-04T18:53:43.770Z,99.90
2022-09-04T18:56:20.235Z,99.90
2022-09-04T18:58:55.403Z,99.90
2022-09-04T19:01:27.652Z,99.90
2022-09-04T19:03:57.616Z,99.90
2022-09-04T19:06:36.881Z,99.90
2022-09-04T19:09:11.595Z,99.90
2022-09-04T19:11:45.174Z,99.90
2022-09-04T19:14:15.587Z,99.90
2022-09-04T19:16:46.708Z,99.90
2022-09-04T19:19:19.747Z,99.90
2022-09-04T19:21:57.885Z,99.90
2022-09-04T19:24:36.548Z,99.90
2022-09-04T19:27:20.622Z,99.90
2022-09-04T19:30:09.825Z,99.90
2022-09-04T19:32:59.904Z,99.90
2022-09-04T19:35:32.632Z,99.90
2022-09-04T19:44:13.571Z,99.90
2022-09-04T19:46:00.423Z,99.90
2022-09-04T19:46:26.124Z,99.90
2022-09-04T19:46:45.784Z,99.90
2022-09-04T19:49:45.143Z,99.90
2022-09-04T19:53:35.738Z,99.90
2022-09-04T19:55:25.338Z,99.90
2022-09-04T19:57:57.165Z,99.90
2022-09-04T20:00:43.649Z,99.90
2022-09-04T20:03:30.388Z,99.90
2022-09-04T20:06:20.481Z,99.90
2022-09-04T20:08:53.702Z,99.90
2022-09-04T20:11:27.238Z,99.90
2022-09-04T20:14:13.679Z,99.90
2022-09-04T20:16:47.938Z,99.90
2022-09-04T20:19:28.013Z,99.90
2022-09-04T20:22:01.637Z,99.90
2022-09-04T20:24:34.350Z,99.90
2022-09-04T20:27:08.560Z,99.90
2022-09-04T20:29:39.305Z,99.90
2022-09-04T20:32:12.981Z,99.90
2022-09-04T20:34:46.306Z,99.90
2022-09-04T20:37:30.765Z,99.90
2022-09-04T20:40:05.735Z,99.90
2022-09-04T20:42:39.475Z,99.90
2022-09-04T20:46:42.213Z,99.90
2022-09-04T20:52:42.642Z,99.90
2022-09-04T20:53:00.033Z,99.90
2022-09-04T20:53:48.726Z,99.90
2022-09-04T20:56:39.554Z,99.90
2022-09-04T21:03:05.811Z,99.90
2022-09-04T21:03:18.178Z,99.90
2022-09-04T21:05:11.298Z,99.90
2022-09-04T21:07:43.480Z,99.90
2022-09-04T21:10:18.987Z,99.90
2022-09-04T21:12:52.467Z,99.90
2022-09-04T21:15:44.092Z,99.90
2022-09-04T21:18:34.682Z,99.90
2022-09-04T21:21:30.195Z,99.90
2022-09-04T21:24:16.289Z,99.90
2022-09-04T21:27:06.225Z,99.90
2022-09-04T21:29:48.961Z,99.90
2022-09-04T21:32:35.209Z,99.90
2022-09-04T21:35:08.470Z,99.90
2022-09-04T21:37:42.340Z,99.90
2022-09-04T21:40:50.297Z,99.90
2022-09-04T21:43:23.927Z,99.90
2022-09-04T21:46:07.778Z,99.90
2022-09-04T21:48:48.940Z,99.90
2022-09-04T21:51:28.721Z,99.90
2022-09-04T21:54:24.929Z,99.90
2022-09-04T22:02:27.864Z,99.90
2022-09-04T22:02:40.288Z,99.90
2022-09-04T22:03:15.354Z,99.90
2022-09-04T22:05:46.948Z,99.90
2022-09-04T22:12:58.741Z,99.90
2022-09-04T22:13:40.213Z,99.90
2022-09-04T22:14:11.818Z,99.90
2022-09-04T22:16:52.894Z,99.90
2022-09-04T22:19:38.608Z,99.90
2022-09-04T22:22:16.899Z,99.90
2022-09-04T22:25:01.720Z,99.90
2022-09-04T22:28:07.842Z,99.90
2022-09-04T22:30:45.816Z,99.90
2022-09-04T22:33:35.928Z,99.90
2022-09-04T22:36:41.720Z,99.90
2022-09-04T22:39:31.448Z,99.90
2022-09-04T22:42:24.570Z,99.90
2022-09-04T22:45:09.959Z,99.90
2022-09-04T22:47:50.547Z,99.90
2022-09-04T22:50:49.214Z,99.90
2022-09-04T22:53:39.595Z,99.90
2022-09-04T22:56:24.713Z,99.90
2022-09-04T22:59:07.665Z,99.90
2022-09-04T23:02:00.131Z,99.90
2022-09-04T23:05:17.556Z,99.90
2022-09-04T23:13:48.604Z,99.90
2022-09-04T23:13:49.987Z,99.90
2022-09-04T23:14:06.833Z,99.90
2022-09-04T23:16:44.892Z,99.90
2022-09-04T23:24:50.456Z,99.90
2022-09-04T23:26:44.145Z,99.90
2022-09-04T23:26:54.235Z,99.90
2022-09-04T23:28:27.543Z,99.90
2022-09-04T23:31:08.700Z,99.90
2022-09-04T23:33:45.332Z,99.90
2022-09-04T23:36:40.753Z,99.90
2022-09-04T23:39:22.219Z,99.90
2022-09-04T23:41:53.648Z,99.90
2022-09-04T23:44:40.284Z,99.90
2022-09-04T23:47:47.927Z,99.90
2022-09-04T23:50:18.253Z,99.90
2022-09-04T23:52:53.653Z,99.90
2022-09-04T23:55:47.544Z,99.90
2022-09-04T23:58:51.933Z,99.90
